Time,TemperatureF,DewpointF,PressureIn,WindDirection,WindDirectionDegrees,WindSpeedMPH,WindSpeedGustMPH,Humidity,HourlyPrecipIn,Conditions,Clouds,dailyrainin,SoftwareType,DateUTC
2013-07-30 00:00:00,62.3,62.3,30.02,SW,223,0.0,0.0,100,0.00,,,0.00,Wunderground v.1.13,2013-07-30 04:00:00,
2013-07-30 00:10:00,63.0,63.0,30.01,NW,316,1.0,1.0,100,0.00,,,0.00,Wunderground v.1.13,2013-07-30 04:10:00,
2013-07-30 00:20:00,63.2,63.2,30.01,NNW,331,0.0,0.0,100,0.00,,,0.00,Wunderground v.1.13,2013-07-30 04:20:00,
2013-07-30 00:30:00,63.3,63.3,30.01,NW,306,0.0,0.0,100,0.00,,,0.00,Wunderground v.1.13,2013-07-30 04:30:00,
2013-07-30 00:40:00,63.3,63.3,30.00,NW,306,0.0,0.0,100,0.00,,,0.00,Wunderground v.1.13,2013-07-30 04:40:00,
2013-07-30 00:50:00,63.4,63.4,30.01,NW,306,0.0,0.0,100,0.00,,,0.00,Wunderground v.1.13,2013-07-30 04:50:00,
2013-07-30 01:00:00,63.4,63.4,30.00,NW,306,0.0,0.0,100,0.00,,,0.00,Wunderground v.1.13,2013-07-30 05:00:00,
2013-07-30 01:10:00,63.5,63.5,30.01,NW,306,0.0,0.0,100,0.00,,,0.00,Wunderground v.1.13,2013-07-30 05:10:00,
2013-07-30 01:20:00,63.5,63.5,30.01,NW,306,0.0,0.0,100,0.00,,,0.00,Wunderground v.1.13,2013-07-30 05:20:00,
2013-07-30 01:30:00,63.5,63.5,30.00,NW,306,0.0,0.0,100,0.00,,,0.00,Wunderground v.1.13,2013-07-30 05:30:00,
2013-07-30 01:40:00,63.5,63.5,30.00,NW,304,1.0,1.0,100,0.00,,,0.00,Wunderground v.1.13,2013-07-30 05:40:00,
2013-07-30 01:50:00,63.5,63.5,29.99,WNW,302,0.0,0.0,100,0.00,,,0.00,Wunderground v.1.13,2013-07-30 05:50:00,
2013-07-30 02:00:00,63.3,63.3,29.99,WNW,302,0.0,0.0,100,0.00,,,0.00,Wunderground v.1.13,2013-07-30 06:00:00,
2013-07-30 02:10:00,63.4,63.4,30.00,WNW,302,0.0,2.0,100,0.00,,,0.00,Wunderground v.1.13,2013-07-30 06:10:00,
2013-07-30 02:20:00,63.4,63.4,30.00,WNW,302,0.0,0.0,100,0.00,,,0.00,Wunderground v.1.13,2013-07-30 06:20:00,
2013-07-30 02:30:00,63.5,63.5,30.00,WNW,302,0.0,0.0,100,0.00,,,0.00,Wunderground v.1.13,2013-07-30 06:30:00,
2013-07-30 02:40:00,63.4,63.4,30.00,WNW,302,0.0,0.0,100,0.00,,,0.00,Wunderground v.1.13,2013-07-30 06:40:00,
2013-07-30 02:50:00,63.4,63.4,29.99,WNW,302,0.0,0.0,100,0.00,,,0.00,Wunderground v.1.13,2013-07-30 06:50:00,
2013-07-30 03:00:00,63.4,63.4,30.00,WNW,302,0.0,0.0,100,0.00,,,0.00,Wunderground v.1.13,2013-07-30 07:00:00,
2013-07-30 03:10:00,63.3,63.3,29.99,WNW,302,0.0,0.0,100,0.00,,,0.00,Wunderground v.1.13,2013-07-30 07:10:00,
2013-07-30 03:20:00,63.3,63.3,29.99,WNW,302,0.0,0.0,100,0.00,,,0.00,Wunderground v.1.13,2013-07-30 07:20:00,
2013-07-30 03:30:00,63.3,63.3,29.99,WNW,302,0.0,0.0,100,0.00,,,0.00,Wunderground v.1.13,2013-07-30 07:30:00,
2013-07-30 03:40:00,63.2,63.2,29.99,WNW,302,0.0,0.0,100,0.00,,,0.00,Wunderground v.1.13,2013-07-30 07:40:00,
2013-07-30 03:50:00,63.2,63.2,29.99,WNW,302,0.0,0.0,100,0.00,,,0.00,Wunderground v.1.13,2013-07-30 07:50:00,
2013-07-30 04:00:00,63.2,63.2,29.99,WNW,302,0.0,0.0,100,0.00,,,0.00,Wunderground v.1.13,2013-07-30 08:00:00,
2013-07-30 04:10:00,63.2,63.2,29.99,WNW,302,0.0,0.0,100,0.00,,,0.00,Wunderground v.1.13,2013-07-30 08:10:00,
2013-07-30 04:20:00,63.2,63.2,29.99,WNW,302,0.0,0.0,100,0.00,,,0.00,Wunderground v.1.13,2013-07-30 08:20:00,
2013-07-30 04:30:00,63.2,63.2,29.99,WNW,302,0.0,0.0,100,0.00,,,0.00,Wunderground v.1.13,2013-07-30 08:30:00,
2013-07-30 04:40:00,63.1,63.1,29.99,WNW,302,0.0,0.0,100,0.00,,,0.00,Wunderground v.1.13,2013-07-30 08:40:00,
2013-07-30 04:50:00,63.1,63.1,29.99,WNW,302,0.0,0.0,100,0.00,,,0.00,Wunderground v.1.13,2013-07-30 08:50:00,
2013-07-30 05:00:00,63.1,63.1,29.99,WNW,302,0.0,0.0,100,0.00,,,0.00,Wunderground v.1.13,2013-07-30 09:00:00,
2013-07-30 05:10:00,63.1,63.1,30.00,WNW,302,0.0,0.0,100,0.00,,,0.00,Wunderground v.1.13,2013-07-30 09:10:00,
2013-07-30 05:20:00,63.1,63.1,30.00,WNW,302,0.0,0.0,100,0.00,,,0.00,Wunderground v.1.13,2013-07-30 09:20:00,
2013-07-30 05:30:00,63.1,63.1,29.99,WNW,302,0.0,2.0,100,0.00,,,0.00,Wunderground v.1.13,2013-07-30 09:30:00,
2013-07-30 05:40:00,63.1,63.1,29.99,WNW,302,0.0,0.0,100,0.00,,,0.00,Wunderground v.1.13,2013-07-30 09:40:00,
2013-07-30 05:50:00,63.1,63.1,30.00,WNW,302,0.0,0.0,100,0.00,,,0.00,Wunderground v.1.13,2013-07-30 09:50:00,
2013-07-30 06:00:00,63.2,63.2,29.99,WNW,302,0.0,0.0,100,0.00,,,0.00,Wunderground v.1.13,2013-07-30 10:00:00,
2013-07-30 06:10:00,63.3,63.3,29.99,WNW,302,0.0,0.0,100,0.00,,,0.00,Wunderground v.1.13,2013-07-30 10:10:00,
2013-07-30 06:20:00,63.4,63.4,29.99,WNW,302,0.0,0.0,100,0.00,,,0.00,Wunderground v.1.13,2013-07-30 10:20:00,
2013-07-30 06:30:00,63.8,63.8,29.99,NNW,347,1.0,1.0,100,0.00,,,0.00,Wunderground v.1.13,2013-07-30 10:30:00,
2013-07-30 06:40:00,64.0,64.0,30.00,NNE,28,1.0,3.0,100,0.00,,,0.00,Wunderground v.1.13,2013-07-30 10:40:00,
2013-07-30 06:50:00,63.8,63.8,30.01,East,101,2.0,2.0,100,0.00,,,0.00,Wunderground v.1.13,2013-07-30 10:50:00,
2013-07-30 07:00:00,63.0,62.7,30.01,NE,45,2.0,13.0,99,0.00,,,0.00,Wunderground v.1.13,2013-07-30 11:00:00,
2013-07-30 07:10:00,61.4,60.5,30.03,ESE,104,3.0,3.0,97,0.19,,,0.07,Wunderground v.1.13,2013-07-30 11:10:00,
2013-07-30 07:20:00,60.4,59.5,30.01,East,88,1.0,1.0,97,0.12,,,0.10,Wunderground v.1.13,2013-07-30 11:20:00,
2013-07-30 07:30:00,60.1,59.8,30.01,NE,54,2.0,2.0,99,0.10,,,0.12,Wunderground v.1.13,2013-07-30 11:30:00,
2013-07-30 07:40:00,60.3,60.0,30.01,NE,54,0.0,0.0,99,0.09,,,0.13,Wunderground v.1.13,2013-07-30 11:40:00,
2013-07-30 07:50:00,60.7,60.7,30.00,NE,53,0.0,0.0,100,0.04,,,0.13,Wunderground v.1.13,2013-07-30 11:50:00,
2013-07-30 08:00:00,61.3,61.3,30.00,NE,54,0.0,0.0,100,0.00,,,0.13,Wunderground v.1.13,2013-07-30 12:00:00,
2013-07-30 08:10:00,61.7,61.7,30.00,NE,53,0.0,0.0,100,0.00,,,0.13,Wunderground v.1.13,2013-07-30 12:10:00,
2013-07-30 08:20:00,61.9,61.6,30.00,NE,54,0.0,0.0,99,0.00,,,0.13,Wunderground v.1.13,2013-07-30 12:20:00,
2013-07-30 08:30:00,62.2,61.9,30.00,NE,53,0.0,0.0,99,0.00,,,0.13,Wunderground v.1.13,2013-07-30 12:30:00,
2013-07-30 08:40:00,62.5,61.9,30.00,NE,53,0.0,0.0,98,0.00,,,0.13,Wunderground v.1.13,2013-07-30 12:40:00,
2013-07-30 08:50:00,63.7,62.2,30.00,NE,53,1.0,1.0,95,0.00,,,0.13,Wunderground v.1.13,2013-07-30 12:50:00,
2013-07-30 09:00:00,65.0,62.6,30.00,ENE,60,1.0,2.0,92,0.00,,,0.13,Wunderground v.1.13,2013-07-30 13:00:00,
2013-07-30 09:10:00,65.9,62.9,30.00,South,175,1.0,2.0,90,0.00,,,0.13,Wunderground v.1.13,2013-07-30 13:10:00,
2013-07-30 09:20:00,66.6,63.9,30.00,ENE,67,1.0,1.0,91,0.00,,,0.13,Wunderground v.1.13,2013-07-30 13:20:00,
2013-07-30 09:30:00,67.2,62.9,30.00,SSW,196,1.0,1.0,86,0.00,,,0.13,Wunderground v.1.13,2013-07-30 13:30:00,
2013-07-30 09:40:00,67.9,61.9,30.00,ENE,64,1.0,2.0,81,0.00,,,0.13,Wunderground v.1.13,2013-07-30 13:40:00,
2013-07-30 09:50:00,68.6,63.2,30.00,East,79,1.0,3.0,83,0.00,,,0.13,Wunderground v.1.13,2013-07-30 13:50:00,
2013-07-30 10:00:00,69.1,63.0,30.00,East,80,1.0,3.0,81,0.00,,,0.13,Wunderground v.1.13,2013-07-30 14:00:00,
2013-07-30 10:10:00,69.2,63.8,30.00,SSW,209,1.0,1.0,83,0.00,,,0.13,Wunderground v.1.13,2013-07-30 14:10:00,
2013-07-30 10:20:00,69.6,62.8,30.00,ENE,61,0.0,0.0,79,0.00,,,0.13,Wunderground v.1.13,2013-07-30 14:20:00,
2013-07-30 10:30:00,68.0,61.2,30.00,NNE,30,1.0,1.0,79,0.00,,,0.13,Wunderground v.1.13,2013-07-30 14:30:00,
2013-07-30 10:40:00,66.8,62.1,30.00,NE,34,1.0,1.0,85,0.00,,,0.13,Wunderground v.1.13,2013-07-30 14:40:00,
2013-07-30 10:50:00,66.0,62.3,30.00,NNE,26,0.0,0.0,88,0.00,,,0.13,Wunderground v.1.13,2013-07-30 14:50:00,
2013-07-30 11:00:00,66.0,62.3,30.00,NNE,28,0.0,0.0,88,0.00,,,0.13,Wunderground v.1.13,2013-07-30 15:00:00,
2013-07-30 11:10:00,66.6,63.3,29.99,NNE,16,0.0,0.0,89,0.00,,,0.13,Wunderground v.1.13,2013-07-30 15:10:00,
2013-07-30 11:20:00,66.9,62.9,29.98,NNE,17,1.0,2.0,87,0.00,,,0.13,Wunderground v.1.13,2013-07-30 15:20:00,
2013-07-30 11:30:00,67.6,63.3,29.98,ENE,74,1.0,1.0,86,0.00,,,0.13,Wunderground v.1.13,2013-07-30 15:30:00,
2013-07-30 11:40:00,68.1,62.7,29.98,NNE,24,1.0,2.0,83,0.00,,,0.13,Wunderground v.1.13,2013-07-30 15:40:00,
2013-07-30 11:50:00,68.8,63.4,29.98,NE,53,1.0,1.0,83,0.00,,,0.13,Wunderground v.1.13,2013-07-30 15:50:00,
2013-07-30 12:00:00,68.7,62.6,29.98,NE,44,1.0,1.0,81,0.00,,,0.13,Wunderground v.1.13,2013-07-30 16:00:00,
2013-07-30 12:10:00,69.2,62.0,29.97,ENE,61,1.0,1.0,78,0.00,,,0.13,Wunderground v.1.13,2013-07-30 16:10:00,
2013-07-30 12:20:00,69.7,62.2,29.97,NE,42,1.0,1.0,77,0.00,,,0.13,Wunderground v.1.13,2013-07-30 16:20:00,
2013-07-30 12:30:00,69.7,63.3,29.97,NE,39,0.0,0.0,80,0.00,,,0.13,Wunderground v.1.13,2013-07-30 16:30:00,
2013-07-30 12:40:00,70.7,63.5,29.96,WNW,292,1.0,5.0,78,0.00,,,0.13,Wunderground v.1.13,2013-07-30 16:40:00,
2013-07-30 12:50:00,71.0,63.1,29.96,NE,41,2.0,2.0,76,0.00,,,0.13,Wunderground v.1.13,2013-07-30 16:50:00,
2013-07-30 13:00:00,71.2,62.5,29.95,East,81,1.0,1.0,74,0.00,,,0.13,Wunderground v.1.13,2013-07-30 17:00:00,
2013-07-30 13:10:00,72.5,61.3,29.95,NNW,335,1.0,1.0,68,0.00,,,0.13,Wunderground v.1.13,2013-07-30 17:10:00,
2013-07-30 13:20:00,73.3,59.9,29.95,NNE,22,1.0,1.0,63,0.00,,,0.13,Wunderground v.1.13,2013-07-30 17:20:00,
2013-07-30 13:30:00,73.4,61.8,29.94,NNE,28,2.0,2.0,67,0.00,,,0.13,Wunderground v.1.13,2013-07-30 17:30:00,
2013-07-30 13:40:00,73.5,61.4,29.94,ENE,75,1.0,1.0,66,0.00,,,0.13,Wunderground v.1.13,2013-07-30 17:40:00,
2013-07-30 13:50:00,74.1,62.9,29.94,NE,36,1.0,1.0,68,0.00,,,0.13,Wunderground v.1.13,2013-07-30 17:50:00,
2013-07-30 14:00:00,74.3,60.4,29.94,NNE,22,3.0,3.0,62,0.00,,,0.13,Wunderground v.1.13,2013-07-30 18:00:00,
2013-07-30 14:10:00,73.5,61.9,29.94,NW,321,1.0,1.0,67,0.00,,,0.13,Wunderground v.1.13,2013-07-30 18:10:00,
2013-07-30 14:20:00,73.5,62.3,29.94,NW,311,1.0,1.0,68,0.00,,,0.13,Wunderground v.1.13,2013-07-30 18:20:00,
2013-07-30 14:30:00,74.1,61.6,29.94,NW,321,1.0,1.0,65,0.00,,,0.13,Wunderground v.1.13,2013-07-30 18:30:00,
2013-07-30 14:40:00,74.4,61.4,29.93,NW,311,2.0,2.0,64,0.00,,,0.13,Wunderground v.1.13,2013-07-30 18:40:00,
2013-07-30 14:50:00,74.6,61.2,29.93,East,96,2.0,2.0,63,0.00,,,0.13,Wunderground v.1.13,2013-07-30 18:50:00,
2013-07-30 15:00:00,73.8,60.4,29.92,East,82,1.0,1.0,63,0.00,,,0.13,Wunderground v.1.13,2013-07-30 19:00:00,
2013-07-30 15:10:00,72.1,60.1,29.93,NE,41,1.0,1.0,66,0.00,,,0.13,Wunderground v.1.13,2013-07-30 19:10:00,
2013-07-30 15:20:00,70.0,61.3,29.93,SSE,157,1.0,1.0,74,0.00,,,0.13,Wunderground v.1.13,2013-07-30 19:20:00,
2013-07-30 15:30:00,67.4,60.7,29.94,SSE,150,2.0,2.0,79,0.49,,,0.15,Wunderground v.1.13,2013-07-30 19:30:00,
2013-07-30 15:40:00,65.3,60.7,29.93,NNE,20,0.0,0.0,85,0.13,,,0.18,Wunderground v.1.13,2013-07-30 19:40:00,
2013-07-30 15:50:00,64.9,62.5,29.93,NNE,20,0.0,0.0,92,0.04,,,0.18,Wunderground v.1.13,2013-07-30 19:50:00,
2013-07-30 16:00:00,66.4,63.4,29.94,NNE,22,1.0,1.0,90,0.00,,,0.18,Wunderground v.1.13,2013-07-30 20:00:00,
2013-07-30 16:10:00,68.2,63.2,29.93,NNE,22,0.0,0.0,84,0.00,,,0.18,Wunderground v.1.13,2013-07-30 20:10:00,
2013-07-30 16:20:00,69.6,62.4,29.93,NNE,22,0.0,0.0,78,0.00,,,0.18,Wunderground v.1.13,2013-07-30 20:20:00,
2013-07-30 16:30:00,70.8,63.6,29.93,NNE,22,0.0,0.0,78,0.00,,,0.18,Wunderground v.1.13,2013-07-30 20:30:00,
2013-07-30 16:40:00,70.7,63.1,29.93,NNE,22,0.0,0.0,77,0.00,,,0.18,Wunderground v.1.13,2013-07-30 20:40:00,
2013-07-30 16:50:00,69.8,64.4,29.93,NNE,22,0.0,0.0,83,0.00,,,0.18,Wunderground v.1.13,2013-07-30 20:50:00,
2013-07-30 17:00:00,68.0,63.7,29.93,NNE,22,0.0,0.0,86,0.00,,,0.18,Wunderground v.1.13,2013-07-30 21:00:00,
2013-07-30 17:10:00,66.5,63.5,29.93,NNE,22,0.0,0.0,90,0.00,,,0.18,Wunderground v.1.13,2013-07-30 21:10:00,
2013-07-30 17:20:00,65.3,60.7,29.94,East,96,1.0,3.0,85,0.00,,,0.18,Wunderground v.1.13,2013-07-30 21:20:00,
2013-07-30 17:30:00,64.1,58.5,29.95,WNW,300,2.0,2.0,82,0.00,,,0.19,Wunderground v.1.13,2013-07-30 21:30:00,
2013-07-30 17:40:00,63.0,59.1,29.95,WNW,300,0.0,0.0,87,0.10,,,0.21,Wunderground v.1.13,2013-07-30 21:40:00,
2013-07-30 17:50:00,63.1,60.7,29.95,WNW,300,0.0,0.0,92,0.05,,,0.21,Wunderground v.1.13,2013-07-30 21:50:00,
2013-07-30 18:00:00,64.8,61.2,29.94,WNW,300,0.0,0.0,88,0.00,,,0.21,Wunderground v.1.13,2013-07-30 22:00:00,
2013-07-30 18:10:00,65.7,60.7,29.95,NW,306,0.0,0.0,84,0.00,,,0.21,Wunderground v.1.13,2013-07-30 22:10:00,
2013-07-30 18:20:00,65.3,61.3,29.95,NW,306,0.0,0.0,87,0.00,,,0.21,Wunderground v.1.13,2013-07-30 22:20:00,
2013-07-30 18:30:00,64.7,61.1,29.95,NW,306,0.0,0.0,88,0.00,,,0.21,Wunderground v.1.13,2013-07-30 22:30:00,
2013-07-30 18:40:00,64.0,60.7,29.95,NW,306,0.0,0.0,89,0.00,,,0.21,Wunderground v.1.13,2013-07-30 22:40:00,
2013-07-30 18:50:00,63.4,60.4,29.95,NW,306,0.0,0.0,90,0.00,,,0.21,Wunderground v.1.13,2013-07-30 22:50:00,
2013-07-30 19:00:00,62.7,60.0,29.94,NNW,330,0.0,0.0,91,0.00,,,0.21,Wunderground v.1.13,2013-07-30 23:00:00,
2013-07-30 19:10:00,61.9,58.9,29.94,NNW,330,0.0,0.0,90,0.00,,,0.21,Wunderground v.1.13,2013-07-30 23:10:00,
2013-07-30 19:20:00,61.3,59.0,29.94,NNW,330,0.0,1.0,92,0.00,,,0.21,Wunderground v.1.13,2013-07-30 23:20:00,
2013-07-30 19:30:00,60.6,58.3,29.94,NNW,331,0.0,0.0,92,0.00,,,0.21,Wunderground v.1.13,2013-07-30 23:30:00,
2013-07-30 19:40:00,59.8,57.8,29.94,NNW,331,0.0,0.0,93,0.00,,,0.21,Wunderground v.1.13,2013-07-30 23:40:00,
2013-07-30 19:50:00,59.1,57.7,29.94,NNW,331,0.0,0.0,95,0.00,,,0.21,Wunderground v.1.13,2013-07-30 23:50:00,
2013-07-30 20:00:00,58.7,57.6,29.94,NNW,331,0.0,0.0,96,0.00,,,0.21,Wunderground v.1.13,2013-07-31 00:00:00,
2013-07-30 20:10:00,58.3,57.2,29.95,NNW,331,0.0,0.0,96,0.00,,,0.21,Wunderground v.1.13,2013-07-31 00:10:00,
2013-07-30 20:30:00,58.4,57.8,29.94,NNW,331,0.0,0.0,98,0.00,,,0.21,Wunderground v.1.13,2013-07-31 00:30:00,
2013-07-30 20:40:00,58.4,57.6,29.95,NNW,331,0.0,0.0,97,0.00,,,0.21,Wunderground v.1.13,2013-07-31 00:40:00,
2013-07-30 20:50:00,58.2,57.4,29.95,NNW,331,0.0,0.0,97,0.00,,,0.21,Wunderground v.1.13,2013-07-31 00:50:00,
2013-07-30 21:00:00,57.8,57.0,29.95,NNW,331,0.0,0.0,97,0.00,,,0.21,Wunderground v.1.13,2013-07-31 01:00:00,
2013-07-30 21:10:00,57.5,56.7,29.95,NNW,331,0.0,0.0,97,0.00,,,0.21,Wunderground v.1.13,2013-07-31 01:10:00,
2013-07-30 21:20:00,57.0,56.2,29.96,NNW,331,0.0,0.0,97,0.00,,,0.21,Wunderground v.1.13,2013-07-31 01:20:00,
2013-07-30 21:30:00,57.0,56.7,29.96,NNW,331,0.0,0.0,99,0.00,,,0.21,Wunderground v.1.13,2013-07-31 01:30:00,
2013-07-30 21:40:00,56.9,56.6,29.96,NNW,331,0.0,0.0,99,0.00,,,0.21,Wunderground v.1.13,2013-07-31 01:40:00,
2013-07-30 21:50:00,57.1,56.8,29.95,NNW,331,0.0,0.0,99,0.00,,,0.21,Wunderground v.1.13,2013-07-31 01:50:00,
2013-07-30 22:00:00,57.5,57.2,29.95,NNW,331,0.0,0.0,99,0.00,,,0.21,Wunderground v.1.13,2013-07-31 02:00:00,
2013-07-30 22:10:00,57.6,57.3,29.95,NNW,331,0.0,0.0,99,0.00,,,0.21,Wunderground v.1.13,2013-07-31 02:10:00,
2013-07-30 22:20:00,57.6,57.3,29.95,NNW,331,0.0,0.0,99,0.00,,,0.21,Wunderground v.1.13,2013-07-31 02:20:00,
2013-07-30 22:30:00,57.5,57.2,29.95,NNW,331,0.0,0.0,99,0.00,,,0.21,Wunderground v.1.13,2013-07-31 02:30:00,
2013-07-30 22:40:00,57.0,56.4,29.95,NNW,331,0.0,0.0,98,0.00,,,0.21,Wunderground v.1.13,2013-07-31 02:40:00,
2013-07-30 22:50:00,56.4,55.8,29.95,NNW,331,0.0,0.0,98,0.00,,,0.21,Wunderground v.1.13,2013-07-31 02:50:00,
2013-07-30 23:00:00,56.4,56.1,29.95,NNW,331,0.0,0.0,99,0.00,,,0.21,Wunderground v.1.13,2013-07-31 03:00:00,
2013-07-30 23:10:00,56.4,56.1,29.95,NNW,331,0.0,0.0,99,0.00,,,0.21,Wunderground v.1.13,2013-07-31 03:10:00,
2013-07-30 23:20:00,56.2,55.9,29.95,NNW,331,0.0,0.0,99,0.00,,,0.21,Wunderground v.1.13,2013-07-31 03:20:00,
2013-07-30 23:30:00,56.2,55.9,29.95,NNW,331,0.0,0.0,99,0.00,,,0.21,Wunderground v.1.13,2013-07-31 03:30:00,
2013-07-30 23:40:00,56.2,55.9,29.95,NNW,331,0.0,0.0,99,0.00,,,0.21,Wunderground v.1.13,2013-07-31 03:40:00,
2013-07-30 23:50:00,56.2,56.2,29.95,NNW,331,0.0,0.0,100,0.00,,,0.21,Wunderground v.1.13,2013-07-31 03:50:00,